Aviation Digital Data Service (ADDS)

Output produced by METARs form (1355 UTC 29 July 2016)
found at http://aviationweather.gov/adds/metars/
 
KCDW 291353Z 04004KT 10SM FEW010 BKN015 OVC120 22/21 A2988 RMK AO2 RAE1256 SLP121 P0005 T02220206 $
KMMU 291347Z 02004KT 4SM BR BKN010 OVC020 21/21 A2988
KFWN 291353Z AUTO 04006KT 10SM OVC060 23/21 A2989 RMK AO2 SLP118 T02330211
KTEB 291351Z 01005KT 8SM FEW080 FEW090 OVC110 22/19 A2985 RMK AO2 RAE43 SLP107 P0001 T02220194 $
KTEB 291331Z 2914/3012 VRB03KT P6SM SCT050 BKN100 
     TEMPO 2914/2915 6SM -SHRA BKN050 
     FM291700 02006KT P6SM FEW050 SCT120 
     FM292200 VRB04KT P6SM SCT050 
     FM300000 VRB03KT P6SM SCT250
       
KEWR 291351Z 01011KT 9SM -RA FEW006 BKN010 OVC050 22/21 A2985 RMK AO2 SLP107 P0005 T02170206 $
KEWR 291331Z 2914/3018 02008KT 3SM RA BKN010 OVC025 
     TEMPO 2914/2915 6SM -SHRA BKN050 
     FM291700 02007KT P6SM FEW050 SCT120 
     FM292200 VRB06KT P6SM SCT050 
     FM300000 17004KT P6SM SCT250 
     FM300500 VRB03KT P6SM SCT250 
     FM301000 02005KT P6SM SCT200 
     FM301600 10005KT P6SM VCSH BKN050
       
KDXR 291353Z 04004KT 9SM FEW009 BKN040 22/20 A2989 RMK AO2 SLP118 P0002 T02220200
KHPN 291256Z 05003KT 7SM -RA SCT050 BKN090 21/19 A2987 RMK AO2 SLP111 P0010 T02110189 $
KHPN 291331Z 2914/3012 VRB03KT 6SM -RA SCT050 BKN090 
     FM291600 04006KT 6SM HZ SCT025 BKN100 
     FM291800 04006KT P6SM FEW045 SCT120 
     FM292200 VRB03KT P6SM SCT045 
     FM300000 VRB03KT P6SM SCT250 
     FM300500 VRB03KT 6SM BR SCT250 
     FM300700 VRB03KT 5SM BR SCT250 AMD NOT SKED
       
KABE 291351Z 03006KT 10SM FEW011 OVC025 24/20 A2988 RMK AO2 SLP116 T02440200 $
KABE 291139Z 2912/3012 03006KT P6SM SCT015 BKN080 
     TEMPO 2912/2915 4SM -SHRA BKN015 BKN080 
     FM291600 02008KT P6SM BKN045 
     FM292200 VRB03KT P6SM SCT045 
     FM300500 VRB03KT 4SM BR BKN100
       
KAVP 291349Z 00000KT 7SM OVC010 23/21 A2991 RMK AO2
KAVP 291332Z 2914/3012 VRB03KT P6SM BKN018 
     FM291500 34007KT P6SM BKN040 
     FM300300 VRB03KT P6SM SCT060 BKN100 
     FM300800 00000KT 5SM BR SCT015 BKN100 
     TEMPO 3009/3012 2SM BR SCT007
       
KSWF 291345Z VRB04KT 8SM FEW005 BKN100 23/21 A2991
KSWF 291331Z 2914/3018 06005KT P6SM SCT030 BKN090 
     FM291600 06007KT P6SM BKN100 
     FM291800 05007KT P6SM SCT100 
     FM292100 05005KT P6SM VCSH BKN080 
     FM300000 VRB03KT P6SM SCT080 SCT120 
     FM300600 VRB03KT 6SM BR SCT250 
     FM301200 VRB03KT P6SM BKN120 
     FM301600 03005KT P6SM VCSH BKN060 AMD NOT SKED
       
KMSV 291335Z AUTO 00000KT 9SM BKN008 BKN032 BKN048 21/20 A2995 RMK AO1
KPOU 291353Z 35005KT 10SM FEW012 SCT019 BKN090 25/21 A2988 RMK AO2 SLP113 T02500211
KPOU 291200Z 2912/3012 34003KT P6SM FEW070 BKN100 BKN120 
     TEMPO 2912/2914 3SM -RA BKN030 
     FM291500 02004KT P6SM SCT030 OVC050 
     FM291800 36005KT P6SM VCSH SCT050 BKN150 
     FM292300 00000KT P6SM BKN200 
     FM300500 00000KT 3SM BR BKN200
       
KACY 291337Z 01014G23KT 2SM -RA BR SCT009 BKN018 OVC028 23/21 A2981 RMK AO2 P0024 T02280211
KACY 291211Z 2912/3012 05006KT 5SM -SHRA BR OVC030 
     TEMPO 2912/2914 1SM SHRA BR OVC005 
     FM291500 02012G20KT P6SM BKN025 
     FM291700 02010G18KT P6SM BKN045 
     FM292200 VRB03KT P6SM SCT045 
     FM300700 VRB03KT 5SM BR SCT100
       
KGON 291256Z 01009KT 4SM RA BR SCT047 OVC065 23/21 A2984 RMK AO2 SLP104 P0008 T02280211
KGON 291331Z 2914/3012 01007KT 6SM -RA BKN060 
     TEMPO 2914/2916 4SM -RA SCT015 BKN025 
     FM291600 05010KT 6SM -RA OVC060 
     FM292000 05008KT P6SM SCT060 BKN100 
     FM292300 05005KT P6SM SCT060 SCT100 
     FM300100 VRB03KT P6SM SCT250 
     FM300600 VRB03KT 5SM BR SCT250
       


 (Extracted from FBUS31 KWNO 290800)
FD1US1
DATA BASED ON 290600Z    
VALID 291200Z   FOR USE 0800-1500Z. TEMPS NEG ABV 24000

FT  3000    6000    9000   12000   18000   24000  30000  34000  39000
BDL 9900 1609+11 2113+08 2417+04 2439-08 2540-18 256232 257141 247652
BGR 0505 2409+12 2521+06 2624+01 2528-10 2632-20 254834 256446 269454
CAR 0205 2713+09 2526+04 2534-01 2631-12 2644-23 276537 267247 268055
PWM 9900 2511+13 2611+07 2614+01 2525-10 2531-20 255434 258043 259553
EMI 0316 3008+15 2709+10 2813+05 2725-07 2636-17 264731 264940 254852
ACK 2405 2505+15 2412+09 2526+03 2543-08 2546-16 255331 255941 256653
BOS 3010 9900+13 1907+07 2413+03 2536-08 2546-18 256332 257641 258153
BML 0106 2809+11 2719+06 2623+01 2526-10 2627-21 254836 255545 258553
ACY 9900 2415+15 2427+11 2532+05 2541-06 2545-16 253631 253740 234852
ALB 9900 3405+12 3307+07 3007+00 2419-09 2427-19 254834 257342 248452
BUF 0708 3207+13 2910+07 2911+01 2713-11 2731-21 275636 276846 265750
JFK 1207 2013+14 2421+09 2427+04 2537-07 2544-17 255331 255641 236352
PLB 3510 3012+10 2719+05 2723+02 2721-11 2628-21 244037 254246 246853
SYR 0411 3211+13 3015+07 3015+01 2814-11 2627-21 264636 255644 245852
CLE 9900 9900+14 2907+08 2910+03 2827-09 2742-19 265933 286644 287352
CMH 9900 9900+14 2707+09 2909+04 2725-08 2729-17 254233 263642 275352
CVG 2406 2508+15 2709+09 2612+03 2622-06 2525-17 254033 264141 274752
AGC 3405 3305+14 3006+09 3010+04 2823-08 2837-17 264532 274542 285852
AVP 0305 0209+13 3408+08 2910+02 2820-08 2636-18 265632 256841 246851
PSB      0308+14 9900+08 3009+03 2820-08 2838-18 275133 265842 266052
ORF 2522 2523+17 2527+13 2427+08 2435-05 2537-17 263031 253740 243951
RIC 2915 2521+17 2525+11 2527+07 2537-06 2536-17 272931 272741 253052
ROA 3224 3113+16 2914+12 3016+07 2718-06 2727-16 263031 273041 262652
CRW 3108 3112+14 3013+10 2915+05 2724-07 2722-15 263431 263841 273653
EKN      3010+13 3208+10 3112+05 2824-07 2827-16 274232 264441 274252


 (Extracted from FBUS33 KWNO 290800)
FD3US3
DATA BASED ON 290600Z    
VALID 291800Z   FOR USE 1500-0000Z. TEMPS NEG ABV 24000

FT  3000    6000    9000   12000   18000   24000  30000  34000  39000
BDL 9900 3612+12 3614+08 2913+03 2627-07 2639-17 266432 266643 257251
BGR 9900 2610+11 2613+06 2616+01 2521-11 2439-20 245336 256545 249551
CAR 9900 2611+10 2523+03 2522+00 2634-11 2543-22 255737 246047 258054
PWM 9900 2608+12 2605+06 2808+00 2421-09 2540-20 266435 257744 249451
EMI 3405 0213+15 3315+09 3013+05 2723-06 2622-16 264232 264741 253552
ACK 1008 1823+14 2031+10 2230+05 2730-06 2647-16 245531 235741 246453
BOS 0705 2805+12 3208+07 2517+04 2434-08 2543-17 266333 257043 248151
BML 9900 3207+11 2817+04 2820+02 2626-12 2442-21 244637 255746 257950
ACY 3609 3310+15 3011+10 2716+05 2727-05 2627-16 263831 254141 254552
ALB 0109 3409+13 3311+07 3114+02 2625-09 2640-20 267733 278244 258350
BUF 0509 3206+13 2911+07 2911+02 2815-10 2726-21 276434 267544 268053
JFK 0110 3512+14 3011+10 2716+05 2628-06 2731-16 264432 264641 255452
PLB 3408 2912+10 2915+05 2922+03 2724-11 2534-23 254337 254348 266949
SYR 0107 0208+13 3114+06 3015+02 2722-10 2833-21 277934 278844 268151
CLE 9900 9900+14 2806+08 2811+03 2820-09 2636-19 255433 265842 256152
CMH 2106 9900+14 9900+08 2406+04 2616-07 2533-18 254832 255042 255353
CVG 2005 2708+14 2608+09 2812+03 2618-07 2532-17 244532 244842 255353
AGC 9900 3605+14 3209+09 2810+04 2720-08 2529-18 265132 265141 265153
AVP 3606 0211+15 3614+08 3211+03 2629-07 2741-18 265632 265942 266252
PSB      0309+15 0107+08 3008+03 2723-07 2739-18 265633 255441 265753
ORF 2812 2620+16 2622+11 2530+06 2438-05 2530-15 262230 251941 243052
RIC 3407 3113+15 2915+10 2918+07 2725-06 2625-15 252331 252441 252752
ROA 3007 3409+16 3112+10 2719+05 2725-06 2725-16 262831 263441 253352
CRW 2605 2807+14 2810+09 2512+04 2720-06 2633-17 253731 254441 253852
EKN      3308+14 3110+08 2812+06 2622-07 2525-17 264032 254641 253952